Time;durP1;ratioP1;P1;durP2;ratioP2;P2;SDS_P1;SDS_P2;PMS_P1;PMS_P2;Temp;Humidity;BMP_temperature;BMP_pressure;BME280_temperature;BME280_humidity;BME280_pressure;Samples;Min_cycle;Max_cycle;Signal;HPM_P1;HPM_P2
2022/11/22 00:02:22;;;;;;;31.13;17.75;;;3.10;99.90;;;;;;5112181;28;20385;-63
2022/11/22 00:04:47;;;;;;;27.45;18.08;;;3.10;99.90;;;;;;5112373;28;20031;-63
2022/11/22 00:07:13;;;;;;;30.63;17.55;;;3.10;99.90;;;;;;5112383;28;20036;-63
2022/11/22 00:09:38;;;;;;;29.48;17.58;;;2.90;99.90;;;;;;5115275;28;20036;-63
2022/11/22 00:12:04;;;;;;;28.08;17.63;;;3.10;99.90;;;;;;5097892;28;20051;-63
2022/11/22 00:14:29;;;;;;;28.65;16.88;;;2.90;99.90;;;;;;5115883;28;20040;-63
2022/11/22 00:16:55;;;;;;;31.55;18.30;;;2.90;99.90;;;;;;5097445;28;20085;-63
2022/11/22 00:19:21;;;;;;;30.65;18.00;;;3.10;99.90;;;;;;5115702;28;20044;-63
2022/11/22 00:21:46;;;;;;;33.55;19.65;;;3.10;99.90;;;;;;5115685;28;20032;-63
2022/11/22 00:24:12;;;;;;;31.85;17.75;;;3.00;99.90;;;;;;5115638;28;20048;-62
2022/11/22 00:26:38;;;;;;;32.67;18.65;;;3.00;99.90;;;;;;5114272;28;20036;-63
2022/11/22 00:29:03;;;;;;;36.33;18.80;;;3.10;99.90;;;;;;5113155;28;20039;-63
2022/11/22 00:31:29;;;;;;;31.10;19.23;;;2.90;99.90;;;;;;5113927;28;20397;-63
2022/11/22 00:33:55;;;;;;;32.00;19.05;;;2.90;99.90;;;;;;5115453;28;20077;-63
2022/11/22 00:36:21;;;;;;;30.52;18.75;;;3.00;99.90;;;;;;5115304;28;20071;-63
2022/11/22 00:38:46;;;;;;;33.08;18.42;;;3.10;99.90;;;;;;5115560;28;20046;-62
2022/11/22 00:41:12;;;;;;;32.33;18.13;;;2.80;99.90;;;;;;5115152;28;20042;-63
2022/11/22 00:43:37;;;;;;;33.03;18.92;;;2.90;99.90;;;;;;5115564;28;20032;-63
2022/11/22 00:46:03;;;;;;;30.90;19.17;;;2.90;99.90;;;;;;5115579;28;20043;-63
2022/11/22 00:48:29;;;;;;;28.05;18.08;;;2.90;99.90;;;;;;5115078;28;20031;-63
2022/11/22 00:50:54;;;;;;;32.05;19.90;;;2.90;99.90;;;;;;5115162;28;20080;-63
2022/11/22 00:53:21;;;;;;;34.83;19.83;;;3.00;99.90;;;;;;5115165;28;20040;-63
2022/11/22 00:55:47;;;;;;;34.90;20.23;;;3.00;99.90;;;;;;5096454;28;20447;-63
2022/11/22 00:58:13;;;;;;;33.38;19.98;;;3.00;99.90;;;;;;5112590;28;20489;-64
2022/11/22 01:00:38;;;;;;;30.13;18.02;;;2.90;99.90;;;;;;5113142;28;20035;-63
2022/11/22 01:03:05;;;;;;;36.53;19.50;;;2.80;99.90;;;;;;5114863;28;20100;-63
2022/11/22 01:05:30;;;;;;;36.20;19.90;;;2.80;99.90;;;;;;5114920;28;20543;-63
2022/11/22 01:07:56;;;;;;;34.53;20.15;;;2.70;99.90;;;;;;5114760;28;20031;-62
2022/11/22 01:10:22;;;;;;;32.05;20.13;;;2.80;99.90;;;;;;5114584;28;20096;-64
2022/11/22 01:12:48;;;;;;;38.35;21.40;;;2.90;99.90;;;;;;5114561;28;20084;-63
2022/11/22 01:15:13;;;;;;;36.50;20.58;;;2.70;99.90;;;;;;5114789;28;20405;-62
2022/11/22 01:17:39;;;;;;;34.53;19.77;;;2.90;99.90;;;;;;5114224;28;20135;-63
2022/11/22 01:20:05;;;;;;;35.05;20.80;;;2.90;99.90;;;;;;5114231;28;20036;-63
2022/11/22 01:22:31;;;;;;;47.40;23.30;;;2.90;99.90;;;;;;5114461;28;20031;-63
2022/11/22 01:24:57;;;;;;;38.05;21.00;;;2.90;99.90;;;;;;5114515;28;20044;-63
2022/11/22 01:27:22;;;;;;;35.80;20.58;;;3.00;99.90;;;;;;5113198;28;20422;-63
2022/11/22 01:29:48;;;;;;;38.08;21.00;;;2.70;99.90;;;;;;5093727;28;20047;-63
2022/11/22 01:32:14;;;;;;;38.17;21.40;;;2.70;99.90;;;;;;5112685;28;20051;-63
2022/11/22 01:34:39;;;;;;;38.08;20.38;;;3.00;99.90;;;;;;5114045;28;20032;-62
2022/11/22 01:37:05;;;;;;;40.70;21.23;;;2.90;99.90;;;;;;5096298;28;20096;-63
2022/11/22 01:39:30;;;;;;;38.63;19.35;;;2.80;99.90;;;;;;5114021;28;20079;-62
2022/11/22 01:41:56;;;;;;;40.35;22.00;;;2.90;99.90;;;;;;5114083;28;20031;-64
2022/11/22 01:44:23;;;;;;;38.30;22.13;;;2.90;99.90;;;;;;5114244;28;20081;-63
2022/11/22 01:46:59;;;;;;;37.20;20.67;;;2.70;99.90;;;;;;5095782;28;20168;-63
2022/11/22 01:49:34;;;;;;;36.15;20.75;;;3.00;99.90;;;;;;5113946;28;20105;-63
2022/11/22 01:52:09;;;;;;;38.05;22.50;;;2.80;99.90;;;;;;5113942;28;20498;-63
2022/11/22 01:54:38;;;;;;;38.90;22.85;;;2.70;99.90;;;;;;5113682;28;20485;-64
2022/11/22 01:57:09;;;;;;;44.72;21.45;;;2.70;99.90;;;;;;5112511;28;20051;-63
2022/11/22 01:59:39;;;;;;;39.92;21.75;;;2.80;99.90;;;;;;5111745;28;20166;-63
2022/11/22 02:02:05;;;;;;;39.88;22.15;;;2.70;99.90;;;;;;5111972;28;20180;-63
2022/11/22 02:04:34;;;;;;;42.50;21.75;;;2.70;99.90;;;;;;5113360;28;20508;-63
2022/11/22 02:07:16;;;;;;;42.45;22.15;;;3.00;99.90;;;;;;5113895;28;20042;-63
2022/11/22 02:09:43;;;;;;;38.67;21.67;;;3.00;99.90;;;;;;5113781;28;20066;-62
2022/11/22 02:12:10;;;;;;;39.28;22.30;;;3.00;99.90;;;;;;5113476;28;20043;-63
2022/11/22 02:14:38;;;;;;;40.58;22.70;;;2.70;99.90;;;;;;5095209;28;20127;-64
2022/11/22 02:17:03;;;;;;;41.42;22.27;;;3.00;99.90;;;;;;5113235;28;20116;-63
2022/11/22 02:19:35;;;;;;;40.75;22.67;;;2.80;99.90;;;;;;5113186;28;20447;-63
2022/11/22 02:22:12;;;;;;;42.67;22.67;;;3.00;99.90;;;;;;5113422;28;20043;-63
2022/11/22 02:25:08;;;;;;;43.05;23.08;;;2.80;99.90;;;;;;5113116;28;20511;-63
2022/11/22 02:27:34;;;;;;;40.42;22.65;;;2.90;99.90;;;;;;5009243;28;20052;-63
2022/11/22 02:29:59;;;;;;;40.47;22.90;;;2.90;99.90;;;;;;5008653;28;20475;-63
2022/11/22 02:32:25;;;;;;;49.25;25.17;;;3.00;99.90;;;;;;5008992;28;20144;-63
2022/11/22 02:34:51;;;;;;;43.47;22.63;;;3.10;99.90;;;;;;5011066;28;20049;-63
2022/11/22 02:37:24;;;;;;;42.40;22.83;;;3.00;99.90;;;;;;5010697;28;20038;-64
2022/11/22 02:39:58;;;;;;;43.75;22.05;;;2.80;99.90;;;;;;5010616;28;20058;-64
2022/11/22 02:42:26;;;;;;;42.83;23.33;;;2.80;99.90;;;;;;5010859;28;20066;-64
2022/11/22 02:44:52;;;;;;;39.80;23.23;;;3.10;99.90;;;;;;5010631;28;20048;-63
2022/11/22 02:47:17;;;;;;;39.47;21.98;;;3.10;99.90;;;;;;5010752;28;20042;-63
2022/11/22 02:49:43;;;;;;;42.13;22.85;;;2.80;99.90;;;;;;4994390;28;20076;-63
2022/11/22 02:52:09;;;;;;;39.72;23.38;;;2.90;99.90;;;;;;5010700;28;20100;-63
2022/11/22 02:54:34;;;;;;;44.05;24.88;;;3.00;99.90;;;;;;5010711;28;20042;-63
2022/11/22 02:57:01;;;;;;;40.05;23.25;;;3.10;99.90;;;;;;5010144;28;20053;-63
2022/11/22 02:59:27;;;;;;;40.15;23.13;;;2.90;99.90;;;;;;5008502;28;20042;-63
2022/11/22 03:01:53;;;;;;;38.67;22.10;;;3.10;99.90;;;;;;5008331;28;20038;-63
2022/11/22 03:04:24;;;;;;;40.38;22.75;;;3.10;99.90;;;;;;5047376;28;20043;-63
2022/11/22 03:06:53;;;;;;;45.53;24.27;;;3.20;99.90;;;;;;5112442;28;20082;-63
2022/11/22 03:09:18;;;;;;;41.97;23.10;;;3.20;99.90;;;;;;5112636;28;20083;-64
2022/11/22 03:11:46;;;;;;;35.97;21.70;;;2.90;99.90;;;;;;5095006;28;20087;-63
2022/11/22 03:14:13;;;;;;;42.88;23.40;;;2.90;99.90;;;;;;5112979;28;20035;-63
2022/11/22 03:16:38;;;;;;;38.40;22.30;;;2.90;99.90;;;;;;5094402;28;20075;-63
2022/11/22 03:19:04;;;;;;;37.75;22.00;;;3.30;99.90;;;;;;5112619;28;20051;-63
2022/11/22 03:21:29;;;;;;;38.65;22.08;;;3.30;99.90;;;;;;5112736;28;20085;-63
2022/11/22 03:23:55;;;;;;;40.22;22.55;;;3.30;99.90;;;;;;5112438;28;20413;-64
2022/11/22 03:26:21;;;;;;;37.53;21.38;;;3.10;99.90;;;;;;5112734;28;20046;-64
2022/11/22 03:28:46;;;;;;;36.92;21.25;;;3.40;99.90;;;;;;5112218;28;20454;-63
2022/11/22 03:31:12;;;;;;;36.70;21.15;;;3.10;99.90;;;;;;5112502;28;20032;-64
2022/11/22 03:33:37;;;;;;;36.47;21.00;;;3.20;99.90;;;;;;5112363;28;20095;-63
2022/11/22 03:36:03;;;;;;;31.95;19.70;;;3.10;99.90;;;;;;5112435;28;20031;-64
2022/11/22 03:38:29;;;;;;;39.28;21.63;;;3.10;99.90;;;;;;5113166;28;20040;-63
2022/11/22 03:40:54;;;;;;;36.45;21.23;;;3.50;99.90;;;;;;5112618;28;20118;-63
2022/11/22 03:43:20;;;;;;;33.67;20.67;;;3.40;99.90;;;;;;5113528;28;20477;-63
2022/11/22 03:45:47;;;;;;;34.63;20.30;;;3.10;99.90;;;;;;5116604;28;20042;-64
2022/11/22 03:48:13;;;;;;;35.20;20.05;;;3.20;99.90;;;;;;5116471;28;20031;-63
2022/11/22 03:50:39;;;;;;;31.90;20.00;;;3.40;99.90;;;;;;5116367;28;20481;-63
2022/11/22 03:53:05;;;;;;;35.42;20.08;;;3.30;99.90;;;;;;5116311;28;20036;-64
2022/11/22 03:55:31;;;;;;;32.42;20.17;;;3.30;99.90;;;;;;5116505;28;20047;-63
2022/11/22 03:57:56;;;;;;;32.50;21.17;;;3.20;99.90;;;;;;5116379;28;20119;-63
2022/11/22 04:00:22;;;;;;;40.92;20.52;;;3.20;99.90;;;;;;5116390;28;20040;-62
2022/11/22 04:02:48;;;;;;;33.60;20.80;;;3.50;99.90;;;;;;5116672;28;20124;-63
2022/11/22 04:05:14;;;;;;;36.63;20.27;;;3.30;99.90;;;;;;5116196;28;20497;-63
2022/11/22 04:07:39;;;;;;;33.55;19.30;;;3.20;99.90;;;;;;5116044;28;20435;-63
2022/11/22 04:10:05;;;;;;;37.45;21.27;;;3.50;99.90;;;;;;5098469;28;20042;-63
2022/11/22 04:12:31;;;;;;;34.58;20.20;;;3.40;99.90;;;;;;5116101;28;20382;-63
2022/11/22 04:15:05;;;;;;;36.30;20.73;;;3.20;99.90;;;;;;5115991;28;20035;-64
2022/11/22 04:17:46;;;;;;;33.10;19.85;;;3.50;99.90;;;;;;5115891;28;20051;-63
2022/11/22 04:23:18;;;;;;;34.72;19.52;;;3.30;99.90;;;;;;5115993;28;20055;-63
2022/11/22 04:25:52;;;;;;;33.63;18.75;;;3.30;99.90;;;;;;5115948;28;20042;-63
2022/11/22 04:28:23;;;;;;;30.90;20.08;;;3.40;99.90;;;;;;5097531;28;20078;-64
2022/11/22 04:33:35;;;;;;;35.80;20.10;;;3.60;99.90;;;;;;5100783;28;20194;-62
2022/11/22 04:36:00;;;;;;;32.58;19.35;;;3.50;99.90;;;;;;5116208;28;20043;-62
2022/11/22 04:38:26;;;;;;;30.52;18.92;;;3.60;99.90;;;;;;5115675;28;20035;-62
2022/11/22 04:40:52;;;;;;;37.15;20.45;;;3.40;99.90;;;;;;5115533;28;20054;-63
2022/11/22 04:46:08;;;;;;;31.88;18.98;;;3.70;99.90;;;;;;5115761;28;20039;-63
2022/11/22 04:48:34;;;;;;;36.75;19.48;;;3.50;99.90;;;;;;5115726;28;20157;-63
2022/11/22 04:53:44;;;;;;;33.83;19.38;;;3.70;99.90;;;;;;5115208;28;20103;-63
2022/11/22 04:56:11;;;;;;;36.60;20.48;;;3.80;99.90;;;;;;5115371;28;20035;-63
2022/11/22 04:58:36;;;;;;;39.50;21.30;;;3.70;99.90;;;;;;5115656;28;20035;-63
2022/11/22 05:01:02;;;;;;;37.00;20.90;;;3.60;99.90;;;;;;5115425;28;20038;-63
2022/11/22 05:03:28;;;;;;;37.22;20.20;;;3.90;99.90;;;;;;5115874;28;20519;-63
2022/11/22 05:05:54;;;;;;;40.10;21.17;;;3.90;99.90;;;;;;5115553;28;20130;-63
2022/11/22 05:08:19;;;;;;;32.80;20.42;;;3.70;99.90;;;;;;5115605;28;20485;-63
2022/11/22 05:10:56;;;;;;;32.97;19.48;;;3.80;99.90;;;;;;5115506;28;20040;-63
2022/11/22 05:13:42;;;;;;;36.13;20.55;;;3.80;99.90;;;;;;5115440;28;20158;-63
2022/11/22 05:16:13;;;;;;;35.17;19.95;;;3.80;99.90;;;;;;5115016;28;20063;-63
2022/11/22 05:18:39;;;;;;;34.55;19.45;;;4.00;99.90;;;;;;5115137;28;20058;-63
2022/11/22 05:21:06;;;;;;;31.80;18.80;;;4.00;99.90;;;;;;5115366;28;20044;-63
2022/11/22 05:26:16;;;;;;;31.95;19.55;;;3.80;99.90;;;;;;5115431;28;20040;-63
2022/11/22 05:28:41;;;;;;;34.47;19.20;;;3.80;99.90;;;;;;5115210;28;20042;-63
2022/11/22 05:31:09;;;;;;;33.45;19.88;;;3.80;99.90;;;;;;5115191;28;20036;-63
2022/11/22 05:33:37;;;;;;;35.28;19.40;;;3.90;99.90;;;;;;5115289;28;20435;-63
2022/11/22 05:36:04;;;;;;;31.98;19.17;;;4.10;99.90;;;;;;5115160;28;20036;-63
2022/11/22 05:38:30;;;;;;;35.67;21.00;;;4.10;99.90;;;;;;5114939;28;20035;-63
2022/11/22 05:40:55;;;;;;;32.88;20.50;;;3.90;99.90;;;;;;5115112;28;20042;-63
2022/11/22 05:43:21;;;;;;;35.00;19.48;;;4.00;99.90;;;;;;5112304;28;20039;-63
2022/11/22 05:45:46;;;;;;;31.90;18.83;;;4.20;99.90;;;;;;5114701;28;20088;-63
2022/11/22 05:48:12;;;;;;;34.63;18.92;;;3.90;99.90;;;;;;5114947;28;20035;-63
2022/11/22 05:50:38;;;;;;;33.50;19.95;;;4.00;99.90;;;;;;5114654;28;20039;-63
2022/11/22 05:53:03;;;;;;;32.70;20.02;;;4.20;99.90;;;;;;5114911;28;20482;-63
2022/11/22 05:55:29;;;;;;;36.45;19.98;;;4.20;99.90;;;;;;5114624;28;20047;-63
2022/11/22 05:57:58;;;;;;;33.42;19.23;;;4.20;99.90;;;;;;5094684;28;20043;-63
2022/11/22 06:00:24;;;;;;;;;;;4.10;99.90;;;;;;5111948;28;20435;-63
2022/11/22 06:02:50;;;;;;;34.15;19.23;;;4.30;99.90;;;;;;5112325;28;19931;-63
2022/11/22 06:05:15;;;;;;;31.75;20.10;;;4.00;99.90;;;;;;5113950;28;20508;-63
2022/11/22 06:07:41;;;;;;;35.83;20.42;;;4.20;99.90;;;;;;5113842;28;20054;-63
2022/11/22 06:10:07;;;;;;;33.28;18.88;;;4.30;99.90;;;;;;5114276;28;20460;-63
2022/11/22 06:12:34;;;;;;;30.13;18.70;;;4.40;99.90;;;;;;5114241;28;20051;-63
2022/11/22 06:15:00;;;;;;;39.15;19.20;;;4.30;99.90;;;;;;5114380;28;20047;-64
2022/11/22 06:17:25;;;;;;;32.05;20.40;;;4.10;99.90;;;;;;5114187;28;20451;-64
2022/11/22 06:19:51;;;;;;;32.30;19.90;;;4.40;99.90;;;;;;5114117;28;20031;-63
2022/11/22 06:22:16;;;;;;;33.20;19.35;;;4.20;99.90;;;;;;5113970;28;20031;-63
2022/11/22 06:24:42;;;;;;;32.83;19.70;;;4.40;99.90;;;;;;5095765;28;20046;-63
2022/11/22 06:27:08;;;;;;;35.35;19.65;;;4.20;99.90;;;;;;5113736;28;20039;-63
2022/11/22 06:29:34;;;;;;;32.17;19.48;;;4.30;99.90;;;;;;5113300;28;20044;-63
2022/11/22 06:31:59;;;;;;;33.53;19.55;;;4.20;99.90;;;;;;5111805;28;20035;-63
2022/11/22 06:34:25;;;;;;;39.40;19.88;;;4.40;99.90;;;;;;5111924;28;20031;-63
2022/11/22 06:36:50;;;;;;;30.30;19.85;;;4.30;99.90;;;;;;5093293;28;20402;-63
2022/11/22 06:39:16;;;;;;;34.80;18.88;;;4.20;99.90;;;;;;5112247;28;20067;-63
2022/11/22 06:41:42;;;;;;;35.25;19.70;;;4.50;99.90;;;;;;5114172;28;20134;-63
2022/11/22 06:44:08;;;;;;;34.30;18.42;;;4.40;99.90;;;;;;5114071;28;20036;-63
2022/11/22 06:46:35;;;;;;;32.10;19.58;;;4.50;99.90;;;;;;5114089;28;20122;-63
2022/11/22 06:49:01;;;;;;;32.70;19.02;;;4.40;99.90;;;;;;5114110;28;20153;-63
2022/11/22 06:51:29;;;;;;;29.48;19.13;;;4.40;99.90;;;;;;5113607;28;20047;-63
2022/11/22 06:53:57;;;;;;;32.00;20.13;;;4.30;99.90;;;;;;5113676;28;20042;-63
2022/11/22 06:56:23;;;;;;;32.55;19.05;;;4.40;99.90;;;;;;5113581;28;20113;-63
2022/11/22 06:58:51;;;;;;;32.10;18.90;;;4.50;99.90;;;;;;5112651;28;20419;-63
2022/11/22 07:01:24;;;;;;;31.55;19.27;;;4.50;99.90;;;;;;5093442;28;20366;-63
2022/11/22 07:03:53;;;;;;;33.95;18.38;;;4.50;99.90;;;;;;5112109;28;20031;-63
2022/11/22 07:06:18;;;;;;;29.95;18.15;;;4.40;99.90;;;;;;5113836;28;20114;-63
2022/11/22 07:08:45;;;;;;;29.33;18.27;;;4.70;99.90;;;;;;5113529;28;20086;-63
2022/11/22 07:11:22;;;;;;;28.45;17.83;;;4.40;99.90;;;;;;5095446;28;20027;-63
2022/11/22 07:13:48;;;;;;;31.63;18.25;;;4.70;99.90;;;;;;5114040;28;20141;-64
2022/11/22 07:16:16;;;;;;;32.33;18.48;;;4.70;99.90;;;;;;5113809;28;20043;-63
2022/11/22 07:18:42;;;;;;;32.53;18.13;;;4.70;99.90;;;;;;5116957;28;20082;-63
2022/11/22 07:21:16;;;;;;;29.23;17.45;;;4.80;99.90;;;;;;5118072;28;20079;-63
2022/11/22 07:23:43;;;;;;;31.17;17.13;;;4.60;99.90;;;;;;5117794;28;20032;-63
2022/11/22 07:26:10;;;;;;;27.17;16.55;;;4.80;99.90;;;;;;5117923;28;20050;-63
2022/11/22 07:28:36;;;;;;;29.75;17.48;;;4.70;99.90;;;;;;5117180;28;20042;-63
2022/11/22 07:31:04;;;;;;;26.77;16.98;;;4.60;99.90;;;;;;5113990;28;20392;-66
2022/11/22 07:33:30;;;;;;;31.33;17.52;;;4.90;99.90;;;;;;5095080;28;20040;-64
2022/11/22 07:36:08;;;;;;;28.83;16.98;;;5.00;99.90;;;;;;5097351;28;20473;-65
2022/11/22 07:38:34;;;;;;;28.88;17.88;;;4.90;99.90;;;;;;5115948;28;20040;-65
2022/11/22 07:41:00;;;;;;;28.55;16.55;;;5.00;99.90;;;;;;5114803;28;20118;-64
2022/11/22 07:43:26;;;;;;;34.25;17.48;;;4.70;99.90;;;;;;5115764;28;20434;-65
2022/11/22 07:45:51;;;;;;;29.77;16.55;;;4.90;99.90;;;;;;5115191;28;20032;-65
2022/11/22 07:48:17;;;;;;;28.58;16.67;;;5.00;99.90;;;;;;5115551;28;20040;-65
2022/11/22 07:50:42;;;;;;;28.13;15.88;;;5.10;99.90;;;;;;5115788;28;20075;-65
2022/11/22 07:53:09;;;;;;;29.65;16.27;;;4.90;99.90;;;;;;5115900;28;20035;-64
2022/11/22 07:55:35;;;;;;;26.52;16.08;;;5.20;99.90;;;;;;5115698;28;20114;-65
2022/11/22 07:58:01;;;;;;;28.52;14.73;;;5.00;99.90;;;;;;5115297;28;20035;-65
2022/11/22 08:00:27;;;;;;;25.92;14.05;;;5.10;99.90;;;;;;5113282;28;20097;-66
2022/11/22 08:02:53;;;;;;;26.85;12.88;;;5.10;99.90;;;;;;5113535;28;20039;-66
2022/11/22 08:05:19;;;;;;;26.23;14.77;;;5.30;99.90;;;;;;5115117;28;20036;-65
2022/11/22 08:07:54;;;;;;;27.23;12.40;;;5.40;99.90;;;;;;5115476;28;20084;-66
2022/11/22 08:10:20;;;;;;;21.80;11.40;;;5.20;99.90;;;;;;5115305;28;20502;-65
2022/11/22 08:12:46;;;;;;;24.67;10.38;;;5.50;99.90;;;;;;5115381;28;20039;-65
2022/11/22 08:15:14;;;;;;;19.50;11.18;;;5.40;99.90;;;;;;5114959;28;20032;-66
2022/11/22 08:17:40;;;;;;;28.63;10.77;;;5.60;99.90;;;;;;5114986;28;20486;-64
2022/11/22 08:20:09;;;;;;;23.70;9.57;;;5.60;99.90;;;;;;5115178;28;20047;-65
2022/11/22 08:22:39;;;;;;;26.45;8.77;;;5.70;99.90;;;;;;5115199;28;20431;-65
2022/11/22 08:25:11;;;;;;;25.08;8.10;;;5.60;99.90;;;;;;5115070;28;20036;-65
2022/11/22 08:27:40;;;;;;;27.25;8.98;;;5.60;99.90;;;;;;5096757;28;20039;-65
2022/11/22 08:30:06;;;;;;;;;;;5.60;99.90;;;;;;5112987;28;20031;-65
2022/11/22 08:32:32;;;;;;;19.85;7.20;;;5.70;99.90;;;;;;5113037;28;19923;-65
2022/11/22 08:34:58;;;;;;;16.00;6.90;;;5.60;99.90;;;;;;5096112;28;20036;-65
2022/11/22 08:37:23;;;;;;;17.92;6.82;;;5.70;99.90;;;;;;5115177;28;20086;-65
2022/11/22 08:39:49;;;;;;;21.73;7.57;;;5.70;99.90;;;;;;5114613;28;20036;-65
2022/11/22 08:42:14;;;;;;;23.50;6.65;;;5.70;99.90;;;;;;5114768;28;20040;-65
2022/11/22 08:44:40;;;;;;;19.80;6.75;;;5.80;99.90;;;;;;5114547;28;20035;-65
2022/11/22 08:47:06;;;;;;;15.63;6.47;;;5.70;99.90;;;;;;5114782;28;20063;-65
2022/11/22 08:49:31;;;;;;;16.77;6.00;;;5.90;99.90;;;;;;5114440;28;20066;-65
2022/11/22 08:51:57;;;;;;;11.52;5.82;;;6.00;99.90;;;;;;5114624;28;20081;-65
2022/11/22 08:54:22;;;;;;;23.95;6.35;;;6.00;99.90;;;;;;5114083;28;20039;-65
2022/11/22 08:56:48;;;;;;;13.68;5.03;;;6.00;99.90;;;;;;5114485;28;20119;-65
2022/11/22 08:59:13;;;;;;;17.45;5.63;;;5.90;99.90;;;;;;5113606;28;20480;-65
2022/11/22 09:01:39;;;;;;;21.25;5.63;;;6.00;99.90;;;;;;5112145;28;20043;-65
2022/11/22 09:04:05;;;;;;;16.33;5.28;;;6.00;99.90;;;;;;5112354;28;20041;-65
2022/11/22 09:06:30;;;;;;;15.10;6.07;;;6.00;99.90;;;;;;5114340;28;20053;-65
2022/11/22 09:08:56;;;;;;;16.75;5.28;;;6.10;99.90;;;;;;5114250;28;20032;-65
2022/11/22 09:11:22;;;;;;;20.13;5.00;;;6.10;99.90;;;;;;5114172;28;20531;-65
2022/11/22 09:13:47;;;;;;;17.52;5.43;;;6.00;99.90;;;;;;5095802;28;20031;-65
2022/11/22 09:16:15;;;;;;;10.73;4.43;;;6.00;99.90;;;;;;5114214;28;20043;-65
2022/11/22 09:18:41;;;;;;;13.63;4.53;;;6.00;99.90;;;;;;5113651;28;20135;-65
2022/11/22 09:21:10;;;;;;;20.75;5.25;;;6.00;99.90;;;;;;5113946;28;20126;-65
2022/11/22 09:23:36;;;;;;;18.73;4.90;;;6.00;99.90;;;;;;5113865;28;20453;-65
2022/11/22 09:26:08;;;;;;;9.98;4.50;;;6.00;99.90;;;;;;5113794;28;20096;-65
2022/11/22 09:28:34;;;;;;;16.05;4.45;;;6.00;99.90;;;;;;5113772;28;20061;-64
2022/11/22 09:31:02;;;;;;;14.18;4.32;;;6.00;99.90;;;;;;5112166;28;20032;-65
2022/11/22 09:33:28;;;;;;;16.58;4.10;;;6.50;99.90;;;;;;5111975;28;20386;-65
2022/11/22 09:36:02;;;;;;;13.15;4.70;;;6.10;99.90;;;;;;5113225;28;20058;-65
2022/11/22 09:38:29;;;;;;;16.30;5.22;;;6.20;99.90;;;;;;5113411;28;20036;-66
2022/11/22 09:40:55;;;;;;;9.93;4.40;;;6.00;99.90;;;;;;5095021;28;20054;-67
2022/11/22 09:43:23;;;;;;;11.48;4.75;;;6.00;99.90;;;;;;5113807;28;20035;-65
2022/11/22 09:46:20;;;;;;;16.65;4.25;;;6.00;99.90;;;;;;5113485;28;20039;-66
2022/11/22 09:48:52;;;;;;;10.32;3.67;;;6.00;99.90;;;;;;5113240;28;20413;-66
2022/11/22 09:51:22;;;;;;;11.07;4.18;;;6.00;99.90;;;;;;5113279;28;20036;-65
2022/11/22 09:53:58;;;;;;;11.75;4.13;;;6.00;99.90;;;;;;5113232;28;20493;-64
2022/11/22 09:56:25;;;;;;;15.25;3.70;;;6.00;99.90;;;;;;5113362;28;20043;-65
2022/11/22 09:59:16;;;;;;;11.95;3.80;;;6.10;99.90;;;;;;5112723;28;20392;-65
2022/11/22 10:01:43;;;;;;;;;;;6.10;99.90;;;;;;5113407;28;20045;-66
2022/11/22 10:04:41;;;;;;;19.38;3.42;;;6.10;99.90;;;;;;5113012;28;20045;-65
2022/11/22 10:07:18;;;;;;;10.88;3.30;;;6.10;99.90;;;;;;5010517;28;20496;-65
2022/11/22 10:09:49;;;;;;;9.38;3.05;;;6.10;99.90;;;;;;4993582;28;20092;-65
2022/11/22 10:12:44;;;;;;;11.05;2.92;;;6.10;99.90;;;;;;5009843;28;20062;-66
2022/11/22 10:15:38;;;;;;;12.75;2.72;;;6.10;99.90;;;;;;4994451;28;20054;-65
2022/11/22 10:18:16;;;;;;;12.50;3.20;;;6.20;99.90;;;;;;5010191;28;20104;-66
2022/11/22 10:20:47;;;;;;;13.15;2.90;;;6.20;99.90;;;;;;5010283;28;20053;-66
2022/11/22 10:23:19;;;;;;;14.02;2.85;;;6.20;99.90;;;;;;4994075;28;20523;-65
2022/11/22 10:25:50;;;;;;;8.10;2.80;;;6.20;99.90;;;;;;5010323;28;20052;-66
2022/11/22 10:28:34;;;;;;;9.93;2.40;;;6.30;99.90;;;;;;5010298;28;20155;-65
2022/11/22 10:31:08;;;;;;;7.60;2.38;;;6.30;99.90;;;;;;4992014;28;20058;-66
2022/11/22 10:33:55;;;;;;;9.45;2.40;;;6.30;99.90;;;;;;5006381;28;20038;-66
2022/11/22 10:36:27;;;;;;;14.95;2.83;;;6.40;99.90;;;;;;5007446;28;20556;-65
2022/11/22 10:39:14;;;;;;;12.60;2.95;;;6.40;99.90;;;;;;5010037;28;20048;-65
2022/11/22 10:41:57;;;;;;;12.82;2.92;;;6.40;99.90;;;;;;5010082;28;20041;-66
2022/11/22 10:44:34;;;;;;;10.60;2.30;;;6.40;99.90;;;;;;5100095;28;20047;-65
2022/11/22 10:47:20;;;;;;;13.30;3.17;;;6.40;99.90;;;;;;5112469;28;20115;-66
2022/11/22 10:50:05;;;;;;;13.80;2.63;;;6.50;99.90;;;;;;5112138;28;20039;-66
2022/11/22 10:52:37;;;;;;;9.85;2.45;;;6.60;99.90;;;;;;5111875;28;20092;-66
2022/11/22 10:55:40;;;;;;;7.82;2.10;;;6.80;99.90;;;;;;5094224;28;20102;-65
2022/11/22 10:58:20;;;;;;;7.95;2.65;;;6.90;99.90;;;;;;5112140;28;20039;-65
2022/11/22 11:00:52;;;;;;;8.20;2.10;;;7.00;99.90;;;;;;5111152;28;20047;-65
2022/11/22 11:03:25;;;;;;;10.63;2.83;;;7.00;99.90;;;;;;5110562;28;20493;-65
2022/11/22 11:06:00;;;;;;;10.60;2.72;;;7.00;99.90;;;;;;5111218;28;20032;-65
2022/11/22 11:08:35;;;;;;;7.80;2.33;;;7.00;99.90;;;;;;5112041;28;20469;-65
2022/11/22 11:11:01;;;;;;;7.72;2.05;;;7.00;99.90;;;;;;5112067;28;20044;-66
2022/11/22 11:13:52;;;;;;;11.75;3.08;;;7.00;99.90;;;;;;5111818;28;20048;-65
2022/11/22 11:16:22;;;;;;;5.30;2.15;;;7.00;99.90;;;;;;5111995;28;20039;-66
2022/11/22 11:19:17;;;;;;;12.73;2.22;;;7.00;99.90;;;;;;5077063;28;20055;-65
2022/11/22 11:21:43;;;;;;;6.53;1.92;;;7.00;99.90;;;;;;5111843;28;20529;-66
2022/11/22 11:24:15;;;;;;;9.43;2.70;;;7.00;99.90;;;;;;5093363;28;20123;-66
2022/11/22 11:26:52;;;;;;;9.18;2.38;;;7.00;99.90;;;;;;5111874;28;20477;-66
2022/11/22 11:29:17;;;;;;;11.15;2.30;;;7.10;99.90;;;;;;5111658;28;20035;-66
2022/11/22 11:31:49;;;;;;;8.57;1.80;;;7.00;99.90;;;;;;5109536;28;20455;-65
2022/11/22 11:34:27;;;;;;;9.32;2.22;;;7.10;99.90;;;;;;5109583;28;20070;-66
2022/11/22 11:36:55;;;;;;;11.18;2.33;;;7.10;99.90;;;;;;5111197;28;20032;-66
2022/11/22 11:39:26;;;;;;;5.75;2.10;;;7.10;99.90;;;;;;5111620;28;20073;-66
2022/11/22 11:41:52;;;;;;;10.98;2.00;;;7.10;99.90;;;;;;5111839;28;20138;-66
2022/11/22 11:44:30;;;;;;;10.10;2.30;;;7.10;99.90;;;;;;5111843;28;20440;-65
2022/11/22 11:46:59;;;;;;;7.95;2.20;;;7.10;99.90;;;;;;5111777;28;20046;-66
2022/11/22 11:49:26;;;;;;;6.70;1.95;;;7.10;99.90;;;;;;5111678;28;20040;-65
2022/11/22 11:51:57;;;;;;;11.85;3.33;;;7.10;99.90;;;;;;5111621;28;20118;-66
2022/11/22 11:54:42;;;;;;;5.85;1.98;;;7.10;99.90;;;;;;5111493;28;20535;-65
2022/11/22 11:57:18;;;;;;;10.18;2.28;;;7.20;99.90;;;;;;5111569;28;20036;-66
2022/11/22 11:59:50;;;;;;;5.57;2.20;;;7.20;99.90;;;;;;5111176;28;20047;-66
2022/11/22 12:02:23;;;;;;;11.18;2.30;;;7.30;99.90;;;;;;5109706;28;20050;-65
2022/11/22 12:04:59;;;;;;;10.50;2.53;;;7.30;99.90;;;;;;5111610;28;20118;-65
2022/11/22 12:07:32;;;;;;;9.63;2.15;;;7.40;99.90;;;;;;5115523;28;20046;-65
2022/11/22 12:09:58;;;;;;;8.25;2.10;;;7.50;99.90;;;;;;5115560;28;20123;-66
2022/11/22 12:12:38;;;;;;;9.63;1.98;;;7.50;99.90;;;;;;5097211;28;20114;-65
2022/11/22 12:15:33;;;;;;;7.90;1.67;;;7.50;99.90;;;;;;5115171;28;20481;-66
2022/11/22 12:18:21;;;;;;;9.30;2.08;;;7.60;99.90;;;;;;5012480;28;20116;-65
2022/11/22 12:20:56;;;;;;;6.60;1.90;;;7.60;99.90;;;;;;5012639;28;20516;-66
2022/11/22 12:23:39;;;;;;;7.82;2.08;;;7.60;99.90;;;;;;5011965;28;20121;-65
2022/11/22 12:26:05;;;;;;;11.18;2.22;;;7.60;99.90;;;;;;5012855;28;20444;-65
2022/11/22 12:28:31;;;;;;;4.35;1.80;;;7.70;99.90;;;;;;5012546;28;20655;-66
2022/11/22 12:31:03;;;;;;;8.70;1.98;;;7.70;99.90;;;;;;5011278;28;20408;-66
2022/11/22 12:33:54;;;;;;;7.10;2.10;;;7.60;99.90;;;;;;5009673;28;20484;-66
2022/11/22 12:36:26;;;;;;;8.77;2.05;;;7.60;99.90;;;;;;5011145;28;20556;-66
2022/11/22 12:38:53;;;;;;;6.18;1.75;;;7.60;99.90;;;;;;5012310;28;20041;-66
2022/11/22 12:41:22;;;;;;;10.10;2.00;;;7.60;99.90;;;;;;5012266;28;20181;-66
2022/11/22 12:43:55;;;;;;;9.63;2.30;;;7.70;99.90;;;;;;5012191;28;20049;-66
2022/11/22 12:46:35;;;;;;;7.63;2.10;;;7.50;99.90;;;;;;5012028;28;20443;-66
2022/11/22 12:49:14;;;;;;;8.50;2.17;;;7.50;99.90;;;;;;5011757;28;20056;-66
2022/11/22 12:51:56;;;;;;;8.48;2.00;;;7.50;99.90;;;;;;5012085;28;20497;-66
2022/11/22 12:54:54;;;;;;;7.15;2.05;;;7.50;99.90;;;;;;5040833;28;20052;-66
2022/11/22 12:57:35;;;;;;;9.57;2.08;;;7.50;99.90;;;;;;5031740;28;20045;-66
2022/11/22 13:00:04;;;;;;;6.10;1.67;;;7.50;99.90;;;;;;5031530;28;20049;-66
2022/11/22 13:02:31;;;;;;;10.82;1.75;;;7.50;99.90;;;;;;5029092;28;20135;-66
2022/11/22 13:05:12;;;;;;;11.30;3.30;;;7.60;99.90;;;;;;5026497;28;20500;-66
2022/11/22 13:07:51;;;;;;;8.13;2.20;;;7.50;99.90;;;;;;5009903;28;20089;-66
2022/11/22 13:10:37;;;;;;;9.65;1.98;;;7.50;99.90;;;;;;5011686;28;20050;-65